Terminal Aerodrome Forecast
Issued by NWS Cleveland, OH

Home | Current Version | Previous Version | Text Only | Print | Product List | Glossary Off
Versions: 1 2 3 4 5 6 7 8 9 10 11 12 13 14 15 16 17 18 19 20 21

000
FTUS41 KCLE 171137
TAFTOL
TAF
KTOL 171137Z 1712/1812 14006KT 1/2SM FG VV002
      TEMPO 1712/1713 1/4SM -TSRA FG VV002CB
     FM171300 22008KT 4SM -SHRA BR OVC003
     FM171600 25015G24KT 5SM BR BKN007
     FM180000 27009KT 5SM BR VCSH BKN009=

USA.gov is the U.S. government's official web portal to all federal, state and local government web resources and services.